createdAt,value
2018-05-16T00:00:42.325Z,18.37
2018-05-16T00:01:45.645Z,17.92
2018-05-16T00:02:48.975Z,16.98
2018-05-16T00:03:52.307Z,23.27
2018-05-16T00:04:55.630Z,28.60
2018-05-16T00:05:58.986Z,16.62
2018-05-16T00:07:02.343Z,17.02
2018-05-16T00:08:05.714Z,17.75
2018-05-16T00:09:09.032Z,19.80
2018-05-16T00:10:12.366Z,20.55
2018-05-16T00:11:15.710Z,21.95
2018-05-16T00:12:19.038Z,21.52
2018-05-16T00:13:22.370Z,24.25
2018-05-16T00:14:25.708Z,19.62
2018-05-16T00:15:29.042Z,22.67
2018-05-16T00:16:32.409Z,16.67
2018-05-16T00:17:35.743Z,17.42
2018-05-16T00:18:39.080Z,19.17
2018-05-16T00:19:42.410Z,20.42
2018-05-16T00:20:45.739Z,18.52
2018-05-16T00:21:49.117Z,16.73
2018-05-16T00:22:52.418Z,19.02
2018-05-16T00:23:55.751Z,18.48
2018-05-16T00:24:59.156Z,20.85
2018-05-16T00:26:02.395Z,20.58
2018-05-16T00:27:05.750Z,22.40
2018-05-16T00:28:09.099Z,18.55
2018-05-16T00:29:12.419Z,24.75
2018-05-16T00:30:15.754Z,24.55
2018-05-16T00:31:19.154Z,20.62
2018-05-16T00:32:22.507Z,21.83
2018-05-16T00:33:25.815Z,20.75
2018-05-16T00:34:29.171Z,18.45
2018-05-16T00:35:32.458Z,22.73
2018-05-16T00:36:35.786Z,17.77
2018-05-16T00:37:39.131Z,21.98
2018-05-16T00:38:42.454Z,17.95
2018-05-16T00:39:45.791Z,18.85
2018-05-16T00:40:49.154Z,19.40
2018-05-16T00:41:52.469Z,18.45
2018-05-16T00:42:55.818Z,23.73
2018-05-16T00:43:59.313Z,20.10
2018-05-16T00:45:02.707Z,22.87
2018-05-16T00:46:06.055Z,21.00
2018-05-16T00:47:09.400Z,23.65
2018-05-16T00:48:12.750Z,22.70
2018-05-16T00:49:16.080Z,20.92
2018-05-16T00:50:19.470Z,19.73
2018-05-16T00:51:32.558Z,18.65
2018-05-16T00:52:35.876Z,19.85
2018-05-16T00:53:39.223Z,19.73
2018-05-16T00:54:42.541Z,19.60
2018-05-16T00:55:45.858Z,21.30
2018-05-16T00:56:49.171Z,20.37
2018-05-16T00:57:52.491Z,20.12
2018-05-16T00:58:55.838Z,21.17
2018-05-16T00:59:59.151Z,21.33
2018-05-16T01:01:02.488Z,24.42
2018-05-16T01:02:05.837Z,21.08
2018-05-16T01:03:09.199Z,19.83
2018-05-16T01:04:12.544Z,22.60
2018-05-16T01:05:16.288Z,27.80
2018-05-16T01:06:19.552Z,29.90
2018-05-16T01:07:22.879Z,24.70
2018-05-16T01:08:26.201Z,19.37
2018-05-16T01:09:29.554Z,20.95
2018-05-16T01:10:32.872Z,20.42
2018-05-16T01:11:36.200Z,22.95
2018-05-16T01:12:39.533Z,21.62
2018-05-16T01:13:43.548Z,22.60
2018-05-16T01:14:46.954Z,18.02
2018-05-16T01:15:50.288Z,23.10
2018-05-16T01:16:53.635Z,20.42
2018-05-16T01:17:56.963Z,29.98
2018-05-16T01:19:00.579Z,21.77
2018-05-16T01:20:03.937Z,21.33
2018-05-16T01:21:07.264Z,22.35
2018-05-16T01:22:10.603Z,29.35
2018-05-16T01:23:13.935Z,21.95
2018-05-16T01:24:17.281Z,26.48
2018-05-16T01:25:20.617Z,22.60
2018-05-16T01:26:23.942Z,22.62
2018-05-16T01:27:27.281Z,20.62
2018-05-16T01:28:30.610Z,26.00
2018-05-16T01:29:33.922Z,25.10
2018-05-16T01:30:37.274Z,30.25
2018-05-16T01:31:40.606Z,25.00
2018-05-16T01:32:43.918Z,20.60
2018-05-16T01:33:47.242Z,24.00
2018-05-16T01:34:50.579Z,23.60
2018-05-16T01:35:53.941Z,20.70
2018-05-16T01:36:57.248Z,18.85
2018-05-16T01:38:00.571Z,20.30
2018-05-16T01:39:04.163Z,26.80
2018-05-16T01:40:07.484Z,23.90
2018-05-16T01:41:10.838Z,17.58
2018-05-16T01:42:14.158Z,19.65
2018-05-16T01:43:17.494Z,21.35
2018-05-16T01:44:21.001Z,20.42
2018-05-16T01:45:24.347Z,23.50
2018-05-16T01:46:27.697Z,16.90
2018-05-16T01:47:31.024Z,15.65
2018-05-16T01:48:34.479Z,18.92
2018-05-16T01:49:37.811Z,14.95
2018-05-16T01:50:41.143Z,15.10
2018-05-16T01:51:44.490Z,15.10
2018-05-16T01:52:47.835Z,20.10
2018-05-16T01:53:51.170Z,17.15
2018-05-16T01:54:54.508Z,19.62
2018-05-16T01:55:57.839Z,15.18
2018-05-16T01:57:01.176Z,18.70
2018-05-16T01:58:04.508Z,14.38
2018-05-16T01:59:07.846Z,20.12
2018-05-16T02:00:11.200Z,15.75
2018-05-16T02:01:14.767Z,12.88
2018-05-16T02:02:18.114Z,17.52
2018-05-16T02:03:21.428Z,16.40
2018-05-16T02:04:24.754Z,16.67
2018-05-16T02:05:28.096Z,13.60
2018-05-16T02:06:31.521Z,13.65
2018-05-16T02:07:34.862Z,17.80
2018-05-16T02:08:38.197Z,12.43
2018-05-16T02:09:41.529Z,14.48
2018-05-16T02:10:44.867Z,17.80
2018-05-16T02:11:48.184Z,13.38
2018-05-16T02:12:51.535Z,16.95
2018-05-16T02:13:54.884Z,16.92
2018-05-16T02:14:58.211Z,13.10
2018-05-16T02:16:01.538Z,11.45
2018-05-16T02:17:04.875Z,15.02
2018-05-16T02:18:08.217Z,13.75
2018-05-16T02:19:11.541Z,14.68
2018-05-16T02:20:14.890Z,12.85
2018-05-16T02:21:18.211Z,14.13
2018-05-16T02:22:21.529Z,13.35
2018-05-16T02:23:24.890Z,12.50
2018-05-16T02:24:28.224Z,10.38
2018-05-16T02:25:31.546Z,10.52
2018-05-16T02:26:34.859Z,9.40
2018-05-16T02:27:38.330Z,10.10
2018-05-16T02:28:41.671Z,8.95
2018-05-16T02:29:45.003Z,8.30
2018-05-16T02:30:48.320Z,12.43
2018-05-16T02:31:51.633Z,13.27
2018-05-16T02:32:54.950Z,13.62
2018-05-16T02:33:58.285Z,10.15
2018-05-16T02:35:01.613Z,9.05
2018-05-16T02:36:04.905Z,9.50
2018-05-16T02:37:08.250Z,15.38
2018-05-16T02:38:11.575Z,13.75
2018-05-16T02:39:14.929Z,10.25
2018-05-16T02:40:18.247Z,11.15
2018-05-16T02:41:21.570Z,9.60
2018-05-16T02:42:24.892Z,11.50
2018-05-16T02:43:28.205Z,9.00
2018-05-16T02:44:31.755Z,11.23
2018-05-16T02:45:35.074Z,9.18
2018-05-16T02:46:38.397Z,11.35
2018-05-16T02:47:41.812Z,11.57
2018-05-16T02:48:45.114Z,9.45
2018-05-16T02:49:48.454Z,8.35
2018-05-16T02:50:51.759Z,10.70
2018-05-16T02:51:55.063Z,14.05
2018-05-16T02:52:58.388Z,10.75
2018-05-16T02:54:01.700Z,12.00
2018-05-16T02:55:05.031Z,10.82
2018-05-16T02:56:08.364Z,8.77
2018-05-16T02:57:11.672Z,7.70
2018-05-16T02:58:14.993Z,13.77
2018-05-16T02:59:18.302Z,9.18
2018-05-16T03:00:21.636Z,9.00
2018-05-16T03:01:24.959Z,8.43
2018-05-16T03:02:28.328Z,12.32
2018-05-16T03:03:31.662Z,12.30
2018-05-16T03:04:34.961Z,9.70
2018-05-16T03:05:38.299Z,9.55
2018-05-16T03:06:41.607Z,9.10
2018-05-16T03:07:44.915Z,10.13
2018-05-16T03:08:48.225Z,9.00
2018-05-16T03:09:51.541Z,8.18
2018-05-16T03:10:54.945Z,9.48
2018-05-16T03:11:58.243Z,10.25
2018-05-16T03:13:01.548Z,11.15
2018-05-16T03:14:04.897Z,11.15
2018-05-16T03:15:08.213Z,11.30
2018-05-16T03:16:11.559Z,10.20
2018-05-16T03:17:14.883Z,11.55
2018-05-16T03:18:18.295Z,11.50
2018-05-16T03:19:21.651Z,10.48
2018-05-16T03:20:24.956Z,12.45
2018-05-16T03:21:28.457Z,11.95
2018-05-16T03:22:31.783Z,10.00
2018-05-16T03:23:35.114Z,17.08
2018-05-16T03:24:38.418Z,9.63
2018-05-16T03:25:42.010Z,9.52
2018-05-16T03:26:45.350Z,13.68
2018-05-16T03:27:48.673Z,9.65
2018-05-16T03:28:52.156Z,10.60
2018-05-16T03:29:55.472Z,14.73
2018-05-16T03:30:58.800Z,14.13
2018-05-16T03:32:02.155Z,10.45
2018-05-16T03:33:05.487Z,14.45
2018-05-16T03:34:08.803Z,15.90
2018-05-16T03:35:12.115Z,9.15
2018-05-16T03:36:15.420Z,13.00
2018-05-16T03:37:18.751Z,9.43
2018-05-16T03:38:22.081Z,12.23
2018-05-16T03:39:25.406Z,9.75
2018-05-16T03:40:28.713Z,10.07
2018-05-16T03:41:32.049Z,15.68
2018-05-16T03:42:35.411Z,10.88
2018-05-16T03:43:38.985Z,14.48
2018-05-16T03:44:42.590Z,10.73
2018-05-16T03:45:45.928Z,11.93
2018-05-16T03:46:49.259Z,11.75
2018-05-16T03:47:52.611Z,10.80
2018-05-16T03:48:55.925Z,9.63
2018-05-16T03:49:59.242Z,10.93
2018-05-16T03:51:02.571Z,13.62
2018-05-16T03:52:05.956Z,11.98
2018-05-16T03:53:09.235Z,12.15
2018-05-16T03:54:12.581Z,12.88
2018-05-16T03:55:15.889Z,12.00
2018-05-16T03:56:19.284Z,13.05
2018-05-16T03:57:34.183Z,13.07
2018-05-16T03:58:49.259Z,11.25
2018-05-16T04:00:04.322Z,12.50
2018-05-16T04:01:19.262Z,14.75
2018-05-16T04:02:34.446Z,14.80
2018-05-16T04:03:49.644Z,9.80
2018-05-16T04:04:52.971Z,17.40
2018-05-16T04:05:56.282Z,10.32
2018-05-16T04:06:59.590Z,11.48
2018-05-16T04:08:02.923Z,13.93
2018-05-16T04:09:06.262Z,11.35
2018-05-16T04:10:09.584Z,11.35
2018-05-16T04:11:12.912Z,12.02
2018-05-16T04:12:16.238Z,12.25
2018-05-16T04:13:19.568Z,13.68
2018-05-16T04:14:22.960Z,10.13
2018-05-16T04:15:26.275Z,10.68
2018-05-16T04:16:29.591Z,11.00
2018-05-16T04:17:32.908Z,20.08
2018-05-16T04:18:36.218Z,11.05
2018-05-16T04:19:39.559Z,12.23
2018-05-16T04:20:43.095Z,17.75
2018-05-16T04:21:46.405Z,14.02
2018-05-16T04:22:49.719Z,14.23
2018-05-16T04:23:53.105Z,12.55
2018-05-16T04:24:56.466Z,14.32
2018-05-16T04:25:59.779Z,15.45
2018-05-16T04:27:03.106Z,10.27
2018-05-16T04:28:06.451Z,17.12
2018-05-16T04:29:09.744Z,12.73
2018-05-16T04:30:13.077Z,12.70
2018-05-16T04:31:16.395Z,12.75
2018-05-16T04:32:19.740Z,13.15
2018-05-16T04:33:23.069Z,16.25
2018-05-16T04:34:26.433Z,11.85
2018-05-16T04:35:29.872Z,13.50
2018-05-16T04:36:33.114Z,14.57
2018-05-16T04:37:36.505Z,14.43
2018-05-16T04:38:39.887Z,18.35
2018-05-16T04:39:43.302Z,12.05
2018-05-16T04:40:46.651Z,12.65
2018-05-16T04:41:50.006Z,22.15
2018-05-16T04:42:53.320Z,13.95
2018-05-16T04:43:56.625Z,37.42
2018-05-16T04:45:00.198Z,17.12
2018-05-16T04:46:03.579Z,24.85
2018-05-16T04:47:06.895Z,16.40
2018-05-16T04:48:10.215Z,14.70
2018-05-16T04:49:13.666Z,15.95
2018-05-16T04:50:16.975Z,17.83
2018-05-16T04:51:20.339Z,20.08
2018-05-16T04:52:23.677Z,15.40
2018-05-16T04:53:27.015Z,14.50
2018-05-16T04:54:30.368Z,23.70
2018-05-16T04:55:33.719Z,52.28
2018-05-16T04:56:37.067Z,24.12
2018-05-16T04:57:40.406Z,17.90
2018-05-16T04:58:43.719Z,13.35
2018-05-16T04:59:47.035Z,26.95
2018-05-16T05:00:50.439Z,19.58
2018-05-16T05:01:53.717Z,15.10
2018-05-16T05:02:57.038Z,21.92
2018-05-16T05:04:00.356Z,15.70
2018-05-16T05:05:03.673Z,20.50
2018-05-16T05:06:07.022Z,21.15
2018-05-16T05:07:10.361Z,22.25
2018-05-16T05:08:13.710Z,21.30
2018-05-16T05:09:17.049Z,18.73
2018-05-16T05:10:20.365Z,20.02
2018-05-16T05:11:23.685Z,16.70
2018-05-16T05:12:27.026Z,17.62
2018-05-16T05:13:30.342Z,14.30
2018-05-16T05:14:33.675Z,17.95
2018-05-16T05:15:37.007Z,21.37
2018-05-16T05:16:40.342Z,15.80
2018-05-16T05:17:43.691Z,16.15
2018-05-16T05:18:47.139Z,15.18
2018-05-16T05:19:50.417Z,16.92
2018-05-16T05:20:53.764Z,20.50
2018-05-16T05:21:57.092Z,18.50
2018-05-16T05:23:00.435Z,18.02
2018-05-16T05:24:03.821Z,17.37
2018-05-16T05:25:07.073Z,16.12
2018-05-16T05:26:10.400Z,12.82
2018-05-16T05:27:13.727Z,16.62
2018-05-16T05:28:17.078Z,17.65
2018-05-16T05:29:20.390Z,18.20
2018-05-16T05:30:23.734Z,14.55
2018-05-16T05:31:27.043Z,14.82
2018-05-16T05:32:30.389Z,17.52
2018-05-16T05:33:33.784Z,17.48
2018-05-16T05:34:37.123Z,13.65
2018-05-16T05:35:40.461Z,14.13
2018-05-16T05:36:43.793Z,12.75
2018-05-16T05:37:47.113Z,10.77
2018-05-16T05:38:50.667Z,11.63
2018-05-16T05:39:54.094Z,11.25
2018-05-16T05:40:57.507Z,12.35
2018-05-16T05:42:00.834Z,13.65
2018-05-16T05:43:04.178Z,12.02
2018-05-16T05:44:07.531Z,12.25
2018-05-16T05:45:11.054Z,16.83
2018-05-16T05:46:14.397Z,12.88
2018-05-16T05:47:17.725Z,13.53
2018-05-16T05:48:21.045Z,10.47
2018-05-16T05:49:24.395Z,12.90
2018-05-16T05:50:27.750Z,10.90
2018-05-16T05:51:31.191Z,16.67
2018-05-16T05:52:34.566Z,16.58
2018-05-16T05:53:37.914Z,15.80
2018-05-16T05:54:41.259Z,11.80
2018-05-16T05:55:44.588Z,10.93
2018-05-16T05:56:48.003Z,13.17
2018-05-16T05:57:51.343Z,15.40
2018-05-16T05:58:54.695Z,12.00
2018-05-16T05:59:58.281Z,12.13
2018-05-16T06:01:01.608Z,10.50
2018-05-16T06:02:04.915Z,15.07
2018-05-16T06:03:08.244Z,11.53
2018-05-16T06:04:11.562Z,16.27
2018-05-16T06:05:14.898Z,12.50
2018-05-16T06:06:18.439Z,15.70
2018-05-16T06:07:21.760Z,11.60
2018-05-16T06:08:25.089Z,13.40
2018-05-16T06:09:28.888Z,14.53
2018-05-16T06:10:32.262Z,14.57
2018-05-16T06:11:35.653Z,13.70
2018-05-16T06:12:39.160Z,13.47
2018-05-16T06:13:42.418Z,16.93
2018-05-16T06:14:45.735Z,18.83
2018-05-16T06:15:49.144Z,19.77
2018-05-16T06:16:52.466Z,16.27
2018-05-16T06:17:55.787Z,12.97
2018-05-16T06:18:59.102Z,24.97
2018-05-16T06:20:02.422Z,11.63
2018-05-16T06:21:05.815Z,13.97
2018-05-16T06:22:09.177Z,20.27
2018-05-16T06:23:12.532Z,12.67
2018-05-16T06:24:15.838Z,16.37
2018-05-16T06:25:19.155Z,16.50
2018-05-16T06:26:22.507Z,18.83
2018-05-16T06:27:25.903Z,13.50
2018-05-16T06:28:29.274Z,17.40
2018-05-16T06:30:13.374Z,17.87
2018-05-16T06:31:16.694Z,12.87
2018-05-16T06:32:20.022Z,12.13
2018-05-16T06:33:23.360Z,15.10
2018-05-16T06:34:26.683Z,14.00
2018-05-16T06:35:30.017Z,16.13
2018-05-16T06:36:33.342Z,12.77
2018-05-16T06:37:36.681Z,13.37
2018-05-16T06:38:39.999Z,12.00
2018-05-16T06:39:43.330Z,16.70
2018-05-16T06:40:46.650Z,18.73
2018-05-16T06:41:49.976Z,18.77
2018-05-16T06:42:53.315Z,17.70
2018-05-16T06:43:56.635Z,13.33
2018-05-16T06:44:59.934Z,18.00
2018-05-16T06:46:03.472Z,17.43
2018-05-16T06:47:06.831Z,13.40
2018-05-16T06:48:10.161Z,12.47
2018-05-16T06:49:13.474Z,16.20
2018-05-16T06:50:16.841Z,13.10
2018-05-16T06:51:20.162Z,16.53
2018-05-16T06:52:23.504Z,16.20
2018-05-16T06:53:26.842Z,15.60
2018-05-16T06:54:30.151Z,15.10
2018-05-16T06:55:33.470Z,22.90
2018-05-16T06:56:36.800Z,13.17
2018-05-16T06:57:40.116Z,16.63
2018-05-16T06:58:43.464Z,13.03
2018-05-16T06:59:46.996Z,12.93
2018-05-16T07:00:50.311Z,12.33
2018-05-16T07:01:53.632Z,12.40
2018-05-16T07:02:56.977Z,13.17
2018-05-16T07:04:00.419Z,15.80
2018-05-16T07:05:03.693Z,12.23
2018-05-16T07:06:07.004Z,14.20
2018-05-16T07:07:10.680Z,14.43
2018-05-16T07:08:14.001Z,14.10
2018-05-16T07:09:17.333Z,15.93
2018-05-16T07:10:20.662Z,14.90
2018-05-16T07:11:23.976Z,15.90
2018-05-16T07:12:27.305Z,13.60
2018-05-16T07:13:30.722Z,14.30
2018-05-16T07:14:34.008Z,15.97
2018-05-16T07:15:37.332Z,16.40
2018-05-16T07:16:40.652Z,14.07
2018-05-16T07:17:43.964Z,14.73
2018-05-16T07:18:47.343Z,15.87
2018-05-16T07:19:50.695Z,13.07
2018-05-16T07:20:54.040Z,16.67
2018-05-16T07:21:57.433Z,15.00
2018-05-16T07:23:00.761Z,15.17
2018-05-16T07:24:04.221Z,14.77
2018-05-16T07:25:07.732Z,15.07
2018-05-16T07:26:11.035Z,14.27
2018-05-16T07:27:14.389Z,16.70
2018-05-16T07:28:17.740Z,17.67
2018-05-16T07:29:21.057Z,12.70
2018-05-16T07:30:24.443Z,15.30
2018-05-16T07:31:27.776Z,16.40
2018-05-16T07:32:31.154Z,16.43
2018-05-16T07:33:34.406Z,18.53
2018-05-16T07:34:37.769Z,19.70
2018-05-16T07:35:41.111Z,15.07
2018-05-16T07:36:44.463Z,16.63
2018-05-16T07:37:47.778Z,19.20
2018-05-16T07:38:51.127Z,19.37
2018-05-16T07:39:54.493Z,17.00
2018-05-16T07:40:57.867Z,16.53
2018-05-16T07:42:01.182Z,17.30
2018-05-16T07:43:04.520Z,20.57
2018-05-16T07:44:07.844Z,19.60
2018-05-16T07:45:11.180Z,15.03
2018-05-16T07:46:14.751Z,14.93
2018-05-16T07:47:18.080Z,17.63
2018-05-16T07:48:21.399Z,15.43
2018-05-16T07:49:24.723Z,15.60
2018-05-16T07:50:28.055Z,15.67
2018-05-16T07:51:31.379Z,19.00
2018-05-16T07:52:34.753Z,15.40
2018-05-16T07:53:38.061Z,17.67
2018-05-16T07:54:41.390Z,16.47
2018-05-16T07:55:44.744Z,14.83
2018-05-16T07:56:48.090Z,16.00
2018-05-16T07:57:51.411Z,16.43
2018-05-16T07:58:54.759Z,15.97
2018-05-16T07:59:58.083Z,17.37
2018-05-16T08:01:01.409Z,18.00
2018-05-16T08:02:04.831Z,15.53
2018-05-16T08:03:08.244Z,16.57
2018-05-16T08:04:11.485Z,16.30
2018-05-16T08:05:14.787Z,14.53
2018-05-16T08:06:18.137Z,11.83
2018-05-16T08:07:21.517Z,13.83
2018-05-16T08:08:24.851Z,17.17
2018-05-16T08:09:28.201Z,15.67
2018-05-16T08:10:31.499Z,14.47
2018-05-16T08:11:34.851Z,16.60
2018-05-16T08:12:38.195Z,15.53
2018-05-16T08:13:41.516Z,12.80
2018-05-16T08:14:44.851Z,14.47
2018-05-16T08:15:48.168Z,14.83
2018-05-16T08:16:51.520Z,14.43
2018-05-16T08:17:54.862Z,22.33
2018-05-16T08:18:58.199Z,18.57
2018-05-16T08:20:01.630Z,19.50
2018-05-16T08:21:04.973Z,15.90
2018-05-16T08:22:08.346Z,13.27
2018-05-16T08:23:11.671Z,14.30
2018-05-16T08:24:16.281Z,19.63
2018-05-16T08:25:19.596Z,15.10
2018-05-16T08:26:22.919Z,18.63
2018-05-16T08:27:26.266Z,14.37
2018-05-16T08:28:29.604Z,16.40
2018-05-16T08:29:32.921Z,14.60
2018-05-16T08:30:36.243Z,12.33
2018-05-16T08:31:39.590Z,17.83
2018-05-16T08:32:42.894Z,16.03
2018-05-16T08:33:46.268Z,15.43
2018-05-16T08:34:49.574Z,16.07
2018-05-16T08:35:52.892Z,24.17
2018-05-16T08:36:56.280Z,17.63
2018-05-16T08:37:59.608Z,14.03
2018-05-16T08:39:02.989Z,13.53
2018-05-16T08:40:06.353Z,12.10
2018-05-16T08:41:09.756Z,14.60
2018-05-16T08:42:13.062Z,15.10
2018-05-16T08:43:16.388Z,14.30
2018-05-16T08:44:19.718Z,14.50
2018-05-16T08:45:23.029Z,17.97
2018-05-16T08:46:26.548Z,18.17
2018-05-16T08:47:29.858Z,19.63
2018-05-16T08:48:33.192Z,14.20
2018-05-16T08:49:36.959Z,13.07
2018-05-16T08:50:40.272Z,14.90
2018-05-16T08:51:43.590Z,14.17
2018-05-16T08:52:46.908Z,15.20
2018-05-16T08:53:50.228Z,12.67
2018-05-16T08:54:53.562Z,17.97
2018-05-16T08:55:56.916Z,13.27
2018-05-16T08:57:00.244Z,13.07
2018-05-16T08:58:03.563Z,18.07
2018-05-16T08:59:06.903Z,15.53
2018-05-16T09:00:10.245Z,12.83
2018-05-16T09:01:13.581Z,18.33
2018-05-16T09:02:16.904Z,14.33
2018-05-16T09:03:20.221Z,17.50
2018-05-16T09:04:23.544Z,14.40
2018-05-16T09:05:26.889Z,13.80
2018-05-16T09:06:30.237Z,13.43
2018-05-16T09:07:33.538Z,14.90
2018-05-16T09:08:36.882Z,19.63
2018-05-16T09:09:40.193Z,12.77
2018-05-16T09:10:43.537Z,16.33
2018-05-16T09:11:46.852Z,14.83
2018-05-16T09:12:50.176Z,15.47
2018-05-16T09:13:53.482Z,14.60
2018-05-16T09:14:56.795Z,14.37
2018-05-16T09:16:00.142Z,16.90
2018-05-16T09:17:03.491Z,14.30
2018-05-16T09:18:06.819Z,15.30
2018-05-16T09:19:10.159Z,14.60
2018-05-16T09:20:13.462Z,15.67
2018-05-16T09:21:16.817Z,15.53
2018-05-16T09:22:20.320Z,16.47
2018-05-16T09:23:23.726Z,14.33
2018-05-16T09:24:27.066Z,21.93
2018-05-16T09:25:30.849Z,12.50
2018-05-16T09:26:34.166Z,13.43
2018-05-16T09:27:37.474Z,10.67
2018-05-16T09:28:40.804Z,12.80
2018-05-16T09:29:44.141Z,11.30
2018-05-16T09:30:47.451Z,10.43
2018-05-16T09:31:50.790Z,14.33
2018-05-16T09:32:54.121Z,15.83
2018-05-16T09:33:57.416Z,17.33
2018-05-16T09:35:00.731Z,16.87
2018-05-16T09:36:04.075Z,11.13
2018-05-16T09:37:07.709Z,13.73
2018-05-16T09:38:11.032Z,11.73
2018-05-16T09:39:14.368Z,11.47
2018-05-16T09:40:17.783Z,26.07
2018-05-16T09:41:21.026Z,10.77
2018-05-16T09:42:24.420Z,11.53
2018-05-16T09:43:27.659Z,11.33
2018-05-16T09:44:30.975Z,12.33
2018-05-16T09:45:34.388Z,13.50
2018-05-16T09:46:38.461Z,10.07
2018-05-16T09:47:41.807Z,10.90
2018-05-16T09:48:45.185Z,12.70
2018-05-16T09:49:48.509Z,12.33
2018-05-16T09:50:51.831Z,12.60
2018-05-16T09:51:55.153Z,12.37
2018-05-16T09:52:58.487Z,12.03
2018-05-16T09:54:01.808Z,13.67
2018-05-16T09:55:05.119Z,14.23
2018-05-16T09:56:08.472Z,13.90
2018-05-16T09:57:12.615Z,14.13
2018-05-16T09:58:15.958Z,14.90
2018-05-16T09:59:19.271Z,11.97
2018-05-16T10:00:28.105Z,14.03
2018-05-16T10:01:31.423Z,14.53
2018-05-16T10:02:34.801Z,10.70
2018-05-16T10:03:38.149Z,13.57
2018-05-16T10:04:41.486Z,15.57
2018-05-16T10:05:45.032Z,13.13
2018-05-16T10:06:48.350Z,14.63
2018-05-16T10:07:51.665Z,15.73
2018-05-16T10:08:55.056Z,11.20
2018-05-16T10:09:58.340Z,16.20
2018-05-16T10:11:01.660Z,16.10
2018-05-16T10:12:04.999Z,13.20
2018-05-16T10:13:08.355Z,11.10
2018-05-16T10:14:11.708Z,12.00
2018-05-16T10:15:15.034Z,14.73
2018-05-16T10:16:18.358Z,17.03
2018-05-16T10:17:21.666Z,15.80
2018-05-16T10:18:25.005Z,14.33
2018-05-16T10:19:28.358Z,15.20
2018-05-16T10:20:31.689Z,12.40
2018-05-16T10:21:35.033Z,13.70
2018-05-16T10:22:38.366Z,13.67
2018-05-16T10:23:41.795Z,12.50
2018-05-16T10:24:45.051Z,17.60
2018-05-16T10:25:48.388Z,15.60
2018-05-16T10:26:51.701Z,13.47
2018-05-16T10:27:55.046Z,10.40
2018-05-16T10:28:58.363Z,13.30
2018-05-16T10:30:01.778Z,9.97
2018-05-16T10:31:05.066Z,10.70
2018-05-16T10:32:08.381Z,13.20
2018-05-16T10:33:11.692Z,13.50
2018-05-16T10:34:15.019Z,9.83
2018-05-16T10:35:18.575Z,11.20
2018-05-16T10:36:21.645Z,9.07
2018-05-16T10:37:24.949Z,10.83
2018-05-16T10:38:28.296Z,13.77
2018-05-16T10:39:31.646Z,10.47
2018-05-16T10:40:34.963Z,10.50
2018-05-16T10:41:38.266Z,10.70
2018-05-16T10:42:41.579Z,13.50
2018-05-16T10:43:44.887Z,10.90
2018-05-16T10:44:48.198Z,12.30
2018-05-16T10:45:51.521Z,9.30
2018-05-16T10:46:54.972Z,16.33
2018-05-16T10:47:58.274Z,10.30
2018-05-16T10:49:01.594Z,12.77
2018-05-16T10:50:04.963Z,16.67
2018-05-16T10:51:08.306Z,12.13
2018-05-16T10:52:11.688Z,10.37
2018-05-16T10:53:14.933Z,11.70
2018-05-16T10:54:18.280Z,12.40
2018-05-16T10:55:21.599Z,11.53
2018-05-16T10:56:24.939Z,10.60
2018-05-16T10:57:28.443Z,12.63
2018-05-16T10:58:31.762Z,11.57
2018-05-16T10:59:35.112Z,10.70
2018-05-16T11:00:38.758Z,10.13
2018-05-16T11:01:42.094Z,12.40
2018-05-16T11:02:45.555Z,15.40
2018-05-16T11:03:48.913Z,11.83
2018-05-16T11:04:52.229Z,15.60
2018-05-16T11:05:55.574Z,15.70
2018-05-16T11:06:58.922Z,14.07
2018-05-16T11:08:02.316Z,11.50
2018-05-16T11:09:06.616Z,13.00
2018-05-16T11:10:09.936Z,12.73
2018-05-16T11:11:13.259Z,14.80
2018-05-16T11:12:16.727Z,17.40
2018-05-16T11:13:19.985Z,12.60
2018-05-16T11:14:23.287Z,12.70
2018-05-16T11:15:26.623Z,14.13
2018-05-16T11:16:29.949Z,12.80
2018-05-16T11:17:33.548Z,11.17
2018-05-16T11:18:36.857Z,11.80
2018-05-16T11:19:40.353Z,9.60
2018-05-16T11:20:43.681Z,13.70
2018-05-16T11:21:46.989Z,18.10
2018-05-16T11:22:50.327Z,14.73
2018-05-16T11:23:53.638Z,12.03
2018-05-16T11:24:56.950Z,15.30
2018-05-16T11:26:00.286Z,11.73
2018-05-16T11:27:03.605Z,12.57
2018-05-16T11:28:07.373Z,12.10
2018-05-16T11:29:12.560Z,12.10
2018-05-16T11:30:16.837Z,11.00
2018-05-16T11:31:20.171Z,11.37
2018-05-16T11:32:23.490Z,11.57
2018-05-16T11:33:26.824Z,15.00
2018-05-16T11:34:30.147Z,17.83
2018-05-16T11:35:33.472Z,12.20
2018-05-16T11:36:36.781Z,13.13
2018-05-16T11:37:40.125Z,10.10
2018-05-16T11:38:43.444Z,10.10
2018-05-16T11:39:46.784Z,13.73
2018-05-16T11:40:50.113Z,10.40
2018-05-16T11:41:53.422Z,12.63
2018-05-16T11:42:56.734Z,12.77
2018-05-16T11:44:00.073Z,12.70
2018-05-16T11:45:03.391Z,13.60
2018-05-16T11:46:06.699Z,10.20
2018-05-16T11:47:10.287Z,13.37
2018-05-16T11:48:13.611Z,11.23
2018-05-16T11:49:16.954Z,10.70
2018-05-16T11:50:20.274Z,9.60
2018-05-16T11:51:23.593Z,10.87
2018-05-16T11:52:26.913Z,11.83
2018-05-16T11:53:30.235Z,12.00
2018-05-16T11:54:33.769Z,14.93
2018-05-16T11:55:37.284Z,14.03
2018-05-16T11:56:40.604Z,14.23
2018-05-16T11:57:43.909Z,14.03
2018-05-16T11:58:47.233Z,9.73
2018-05-16T11:59:50.567Z,13.10
2018-05-16T12:00:53.871Z,13.43
2018-05-16T12:01:57.182Z,11.43
2018-05-16T12:03:00.501Z,9.20
2018-05-16T12:04:03.815Z,15.33
2018-05-16T12:05:07.150Z,10.30
2018-05-16T12:06:10.486Z,17.70
2018-05-16T12:07:13.830Z,10.37
2018-05-16T12:08:17.125Z,9.50
2018-05-16T12:09:20.450Z,13.57
2018-05-16T12:10:23.796Z,12.80
2018-05-16T12:11:27.098Z,10.77
2018-05-16T12:12:30.425Z,13.17
2018-05-16T12:13:33.731Z,9.17
2018-05-16T12:14:37.058Z,9.73
2018-05-16T12:15:40.391Z,9.80
2018-05-16T12:16:43.690Z,11.43
2018-05-16T12:17:47.011Z,14.43
2018-05-16T12:18:50.328Z,15.37
2018-05-16T12:19:53.684Z,10.87
2018-05-16T12:20:57.038Z,9.83
2018-05-16T12:22:00.351Z,10.23
2018-05-16T12:23:03.681Z,8.70
2018-05-16T12:24:06.997Z,10.53
2018-05-16T12:25:10.304Z,11.50
2018-05-16T12:26:13.674Z,10.30
2018-05-16T12:27:17.025Z,12.83
2018-05-16T12:28:20.352Z,8.60
2018-05-16T12:29:23.759Z,10.80
2018-05-16T12:30:27.063Z,9.07
2018-05-16T12:31:30.518Z,8.43
2018-05-16T12:32:33.832Z,13.00
2018-05-16T12:33:37.163Z,12.43
2018-05-16T12:34:40.483Z,6.33
2018-05-16T12:35:43.789Z,10.90
2018-05-16T12:36:47.114Z,11.20
2018-05-16T12:37:50.438Z,8.47
2018-05-16T12:38:53.740Z,7.97
2018-05-16T12:39:57.068Z,8.97
2018-05-16T12:41:00.381Z,12.60
2018-05-16T12:42:03.748Z,9.20
2018-05-16T12:43:22.897Z,8.87
2018-05-16T12:44:26.208Z,7.10
2018-05-16T12:45:29.638Z,11.00
2018-05-16T12:46:33.054Z,7.77
2018-05-16T12:47:36.535Z,6.97
2018-05-16T12:48:41.150Z,5.90
2018-05-16T12:49:44.469Z,10.03
2018-05-16T12:50:47.787Z,8.73
2018-05-16T12:51:51.098Z,12.37
2018-05-16T12:52:54.514Z,8.47
2018-05-16T12:53:57.908Z,10.90
2018-05-16T12:55:01.216Z,7.50
2018-05-16T12:56:04.562Z,9.80
2018-05-16T12:57:07.859Z,7.00
2018-05-16T12:58:11.196Z,10.90
2018-05-16T12:59:14.513Z,6.53
2018-05-16T13:00:17.853Z,11.13
2018-05-16T13:01:21.196Z,8.50
2018-05-16T13:02:24.571Z,7.97
2018-05-16T13:03:28.243Z,7.73
2018-05-16T13:04:31.568Z,12.30
2018-05-16T13:05:34.932Z,6.53
2018-05-16T13:06:38.230Z,6.90
2018-05-16T13:07:41.537Z,7.70
2018-05-16T13:08:44.880Z,7.83
2018-05-16T13:09:48.191Z,9.00
2018-05-16T13:10:51.551Z,6.30
2018-05-16T13:11:54.843Z,9.33
2018-05-16T13:12:58.208Z,11.00
2018-05-16T13:14:01.483Z,10.43
2018-05-16T13:15:04.788Z,8.23
2018-05-16T13:16:08.090Z,6.63
2018-05-16T13:17:11.400Z,6.10
2018-05-16T13:18:14.740Z,7.67
2018-05-16T13:19:18.069Z,6.53
2018-05-16T13:20:21.392Z,7.10
2018-05-16T13:21:24.734Z,7.07
2018-05-16T13:22:28.007Z,10.20
2018-05-16T13:23:31.342Z,7.23
2018-05-16T13:24:34.776Z,9.40
2018-05-16T13:25:38.081Z,13.87
2018-05-16T13:26:41.390Z,8.63
2018-05-16T13:27:44.688Z,7.80
2018-05-16T13:28:48.034Z,6.70
2018-05-16T13:29:51.382Z,8.17
2018-05-16T13:30:54.674Z,5.77
2018-05-16T13:31:58.000Z,9.60
2018-05-16T13:33:01.354Z,6.13
2018-05-16T13:34:04.685Z,8.53
2018-05-16T13:35:08.023Z,9.13
2018-05-16T13:36:11.525Z,6.30
2018-05-16T13:37:14.783Z,11.47
2018-05-16T13:38:18.168Z,6.90
2018-05-16T13:39:21.500Z,6.50
2018-05-16T13:40:24.846Z,7.37
2018-05-16T13:41:28.158Z,7.80